Maddy — CQPG — position and weather

sailwx.info

Track history (hours):
 
Tides and Currents Weather Stations Pressure Air Temp Water Temp Dewpoint Dewpoint Depression Visibility Wind Speed Wind Dir Waves Ship Positions

Maddy

Last reported at 2017-Nov-17 19:35 UTC. Time now 2017-Nov-21 01:06 UTC.
Position N 28°18' W 016°03'.

Length 75 m; draft 5 m.

Type: Ship. MMSI: 255802440.

Date/timePositionNaut miles runAvg speedWind from/ knotsBaromVisibWave heightAir tempDewpointWater temp
2017-Nov-17 19:35N 28°18' W 016°03'110.4
2017-Nov-17 19:30N 28°19' W 016°02'510.5
2017-Nov-17 19:00N 28°23' W 015°58'510.7
2017-Nov-17 18:30N 28°27' W 015°54'510.5
2017-Nov-17 18:00N 28°31' W 015°51'510.6
2017-Nov-17 17:31N 28°35' W 015°47'5 9.8
2017-Nov-17 17:00N 28°37' W 015°42'510.1
2017-Nov-17 16:31N 28°38' W 015°36'510.1
2017-Nov-17 16:01N 28°39' W 015°30'510.0
2017-Nov-17 15:31N 28°39' W 015°25'510.0
2017-Nov-17 15:00N 28°40' W 015°19'510.2
2017-Nov-17 14:31N 28°41' W 015°13'510.2
2017-Nov-17 14:01N 28°42' W 015°08'510.4
2017-Nov-17 13:30N 28°42' W 015°02'610.5
2017-Nov-17 12:55N 28°43' W 014°55'1610.4
2017-Nov-17 11:26N 28°45' W 014°37'510.5
2017-Nov-17 10:59N 28°44' W 014°32'510.3
2017-Nov-17 10:30N 28°45' W 014°26'610.3
2017-Nov-17 09:54N 28°46' W 014°19'610.1
2017-Nov-17 09:18N 28°47' W 014°13'1110.1
2017-Nov-17 08:12N 28°48' W 013°60'28 2.3
2017-Nov-16 20:00N 28°58' W 013°31'0 0.0
2017-Nov-16 13:09N 28°58' W 013°31'0 0.0
2017-Nov-16 11:50N 28°58' W 013°31'0 0.6
2017-Nov-16 11:28N 28°58' W 013°31'3 6.0
2017-Nov-16 11:00N 28°56' W 013°28'4 7.0
2017-Nov-16 10:28N 28°54' W 013°24'3 5.4
2017-Nov-16 09:59N 28°53' W 013°22'5 7.2
2017-Nov-16 09:20N 28°55' W 013°27'2 4.8
2017-Nov-16 08:59N 28°56' W 013°28'4 5.4
2017-Nov-16 08:19N 28°58' W 013°32'0 0.0
2017-Nov-16 01:02N 28°58' W 013°32'0 0.0
2017-Nov-16 00:44N 28°58' W 013°32'0 0.0
2017-Nov-16 00:27N 28°58' W 013°32'0 0.0
2017-Nov-15 23:57N 28°58' W 013°32'0 0.0
2017-Nov-15 23:00N 28°58' W 013°32'0 0.0
2017-Nov-15 21:39N 28°58' W 013°32'0 0.0
2017-Nov-15 21:21N 28°58' W 013°32'0 0.0
2017-Nov-15 20:41N 28°58' W 013°32'0 0.0
2017-Nov-15 20:17N 28°58' W 013°32'0 0.2
2017-Nov-15 18:04N 28°58' W 013°32'1 4.3
2017-Nov-15 17:45N 28°57' W 013°30'0 1.0
2017-Nov-15 17:22N 28°57' W 013°30'0 0.2
2017-Nov-15 16:38N 28°57' W 013°30'1 1.6
2017-Nov-15 16:18N 28°57' W 013°31'1 1.5
2017-Nov-15 15:50N 28°57' W 013°31'0 1.2
2017-Nov-15 15:27N 28°56' W 013°32'2 3.7
2017-Nov-15 14:57N 28°55' W 013°33'4 8.1
2017-Nov-15 14:27N 28°52' W 013°36'4 9.0
2017-Nov-15 14:00N 28°48' W 013°38'5 9.2
2017-Nov-15 13:30N 28°44' W 013°40'36 1.3
2017-Nov-14 10:19N 28°11' W 013°56'3 9.2
2017-Nov-14 09:59N 28°10' W 013°59'5 9.8
2017-Nov-14 09:31N 28°08' W 014°04'5 9.8
2017-Nov-14 08:58N 28°05' W 014°09'5 9.8
2017-Nov-14 08:29N 28°03' W 014°14'5 9.5
2017-Nov-14 07:56N 28°00' W 014°19'8 9.7
2017-Nov-14 07:06N 28°01' W 014°28'1 9.1
2017-Nov-14 06:58N 28°01' W 014°29'5 8.3
2017-Nov-14 06:21N 28°01' W 014°35'3 8.5
2017-Nov-14 06:00N 28°02' W 014°38'4 8.7
2017-Nov-14 05:30N 28°02' W 014°43'4 8.5
2017-Nov-14 05:00N 28°02' W 014°48'4 8.3
2017-Nov-14 04:30N 28°02' W 014°53'4 8.3
2017-Nov-14 04:00N 28°03' W 014°58'4 8.4
2017-Nov-14 03:30N 28°03' W 015°02'4 8.2
2017-Nov-14 03:00N 28°03' W 015°07'4 8.1
2017-Nov-14 02:30N 28°02' W 015°11'4 8.3
2017-Nov-14 02:00N 28°00' W 015°16'4 8.6
2017-Nov-14 01:31N 27°59' W 015°20'84 2.5
2017-Nov-12 15:14N 28°29' W 013°51'2 7.9
2017-Nov-12 14:59N 28°28' W 013°50'4 8.8
2017-Nov-12 14:29N 28°23' W 013°49'4 9.3
2017-Nov-12 14:00N 28°19' W 013°51'6 9.1
2017-Nov-12 13:20N 28°14' W 013°54'5 9.5
2017-Nov-12 12:47N 28°10' W 013°58'3 9.4
2017-Nov-12 12:30N 28°09' W 014°01'5 9.7
2017-Nov-12 11:59N 28°07' W 014°06'710.1
2017-Nov-12 11:19N 28°04' W 014°13'310.2
2017-Nov-12 11:00N 28°02' W 014°16'5 9.8
2017-Nov-12 10:30N 28°01' W 014°21'5 9.6
2017-Nov-12 10:00N 28°01' W 014°27'5 9.5
2017-Nov-12 09:31N 28°01' W 014°32'5 9.2
2017-Nov-12 09:01N 28°02' W 014°37'4 8.8
2017-Nov-12 08:30N 28°02' W 014°42'5 9.0
2017-Nov-12 08:00N 28°03' W 014°47'4 9.0
2017-Nov-12 07:30N 28°03' W 014°52'4 8.8
2017-Nov-12 07:00N 28°03' W 014°57'5 9.0
2017-Nov-12 06:30N 28°04' W 015°02'4 8.9
2017-Nov-12 06:00N 28°03' W 015°07'4 8.8
2017-Nov-12 05:30N 28°01' W 015°12'4 8.6
2017-Nov-12 05:00N 27°60' W 015°17'5 9.0
2017-Nov-12 04:30N 27°59' W 015°21'1 0.2
2017-Nov-11 23:08N 27°59' W 015°23'0 0.0
2017-Nov-11 22:56N 27°59' W 015°23'1 1.8
2017-Nov-11 22:31N 27°58' W 015°22'0 0.8
2017-Nov-11 22:01N 27°58' W 015°22'0 0.1
2017-Nov-11 21:31N 27°58' W 015°22'0 0.7
2017-Nov-11 21:01N 27°58' W 015°22'0 0.8
2017-Nov-11 20:30N 27°59' W 015°22'1 1.2
2017-Nov-11 20:01N 27°59' W 015°21'5 9.9
2017-Nov-11 19:31N 28°03' W 015°17'5 9.8
2017-Nov-11 19:01N 28°06' W 015°14'5 9.8
2017-Nov-11 18:31N 28°10' W 015°10'510.0
2017-Nov-11 18:01N 28°14' W 015°06'5 9.9
2017-Nov-11 17:30N 28°17' W 015°02'510.0
2017-Nov-11 17:00N 28°21' W 014°58'5 9.9
2017-Nov-11 16:30N 28°24' W 014°53'5 9.7
2017-Nov-11 16:00N 28°26' W 014°48'5 9.8
2017-Nov-11 15:30N 28°28' W 014°43'5 9.9
2017-Nov-11 15:00N 28°30' W 014°38'5 9.7
2017-Nov-11 14:30N 28°32' W 014°34'5 9.7
2017-Nov-11 14:00N 28°35' W 014°29'5 9.7
2017-Nov-11 13:30N 28°37' W 014°24'5 9.6
2017-Nov-11 12:59N 28°40' W 014°19'5 9.7
2017-Nov-11 12:30N 28°42' W 014°14'5 9.7
2017-Nov-11 12:00N 28°44' W 014°09'5 9.8
2017-Nov-11 11:31N 28°45' W 014°04'510.1
2017-Nov-11 11:00N 28°47' W 013°58'510.3
2017-Nov-11 10:30N 28°48' W 013°53'610.4
2017-Nov-11 09:57N 28°49' W 013°46'4 9.8
2017-Nov-11 09:29N 28°51' W 013°41'510.1
2017-Nov-11 09:00N 28°54' W 013°37'6 1.3
2017-Nov-11 04:26N 28°58' W 013°32'0 0.0
2017-Nov-11 03:59N 28°58' W 013°32'0 0.2
2017-Nov-11 03:29N 28°58' W 013°32'1 2.5
2017-Nov-11 03:00N 28°57' W 013°31'1 1.6
2017-Nov-11 02:30N 28°57' W 013°30'1 2.4
2017-Nov-11 01:54N 28°56' W 013°29'0 0.9
2017-Nov-11 01:30N 28°57' W 013°29'0 0.6
2017-Nov-11 00:59N 28°57' W 013°29'1 1.6
2017-Nov-11 00:28N 28°56' W 013°30'1 1.6
2017-Nov-10 23:59N 28°56' W 013°31'1 1.6
2017-Nov-10 23:09N 28°55' W 013°32'0 1.6
2017-Nov-10 23:01N 28°55' W 013°32'1 1.6
2017-Nov-10 22:31N 28°55' W 013°33'1 1.5
2017-Nov-10 22:00N 28°54' W 013°34'1 1.4
2017-Nov-10 21:30N 28°53' W 013°34'1 1.2
2017-Nov-10 21:01N 28°53' W 013°35'1 1.7
2017-Nov-10 20:30N 28°52' W 013°35'1 1.5
2017-Nov-10 20:00N 28°52' W 013°35'1 1.5
2017-Nov-10 19:29N 28°51' W 013°36'1 1.4
2017-Nov-10 19:00N 28°50' W 013°36'1 1.5
2017-Nov-10 18:30N 28°50' W 013°37'1 1.2
2017-Nov-10 18:00N 28°49' W 013°37'1 1.4
2017-Nov-10 17:30N 28°49' W 013°37'1 1.1
2017-Nov-10 17:00N 28°48' W 013°38'0 0.6
2017-Nov-10 16:30N 28°48' W 013°38'1 2.4
2017-Nov-10 16:00N 28°47' W 013°38'2 3.6
2017-Nov-10 15:30N 28°45' W 013°39'2 3.8
2017-Nov-10 15:00N 28°44' W 013°40'2 4.1
2017-Nov-10 14:30N 28°42' W 013°41'2 3.9
2017-Nov-10 14:00N 28°40' W 013°43'2 4.0
2017-Nov-10 13:30N 28°38' W 013°44'3 3.9
2017-Nov-10 12:44N 28°36' W 013°45'1 4.1
2017-Nov-10 12:31N 28°35' W 013°46'3 3.9
2017-Nov-10 11:50N 28°33' W 013°47'1 3.8
2017-Nov-10 11:28N 28°31' W 013°48'1 0.1
2017-Nov-09 19:58N 28°30' W 013°48'1 0.7
2017-Nov-09 18:41N 28°31' W 013°47'0 1.2
2017-Nov-09 18:19N 28°30' W 013°47'3 0.7
2017-Nov-09 14:08N 28°29' W 013°44'0 1.8
2017-Nov-09 13:52N 28°28' W 013°45'1 1.6
2017-Nov-09 13:14N 28°27' W 013°45'0 1.5
2017-Nov-09 13:00N 28°27' W 013°45'2 1.3
2017-Nov-09 11:48N 28°25' W 013°46'1 1.0
2017-Nov-09 11:08N 28°25' W 013°47'1 1.2
2017-Nov-09 10:00N 28°24' W 013°48'1 1.2
2017-Nov-09 09:30N 28°24' W 013°48'4 2.5
2017-Nov-09 08:03N 28°20' W 013°50'0 3.6
2017-Nov-09 07:58N 28°20' W 013°50'2 3.6
2017-Nov-09 07:28N 28°18' W 013°51'2 3.7
2017-Nov-09 06:49N 28°16' W 013°52'1 4.0
2017-Nov-09 06:30N 28°15' W 013°52'2 4.1
2017-Nov-09 06:00N 28°13' W 013°53'5 4.2
2017-Nov-09 04:56N 28°10' W 013°57'2 4.7
2017-Nov-09 04:30N 28°09' W 013°59'3 5.3
2017-Nov-09 04:00N 28°08' W 014°01'3 5.5
2017-Nov-09 03:28N 28°06' W 014°04'3 5.4
2017-Nov-09 03:00N 28°04' W 014°06'5 5.6
2017-Nov-09 02:02N 28°01' W 014°11'0 6.0
2017-Nov-09 02:00N 28°01' W 014°12'11 5.2
2017-Nov-08 23:55N 27°60' W 014°24'3 5.3
2017-Nov-08 23:25N 28°01' W 014°27'2 5.0
2017-Nov-08 23:00N 28°01' W 014°29'3 5.3
2017-Nov-08 22:31N 28°01' W 014°32'3 6.4
2017-Nov-08 22:00N 28°01' W 014°35'3 6.4
2017-Nov-08 21:30N 28°02' W 014°39'3 6.5
2017-Nov-08 21:01N 28°02' W 014°43'3 6.5
2017-Nov-08 20:31N 28°03' W 014°46'3 6.8
2017-Nov-08 20:01N 28°03' W 014°50'3 6.6
2017-Nov-08 19:30N 28°03' W 014°54'3 6.4
2017-Nov-08 19:00N 28°03' W 014°57'3 6.3
2017-Nov-08 18:30N 28°04' W 015°01'3 6.0
2017-Nov-08 18:00N 28°03' W 015°04'2 4.4
2017-Nov-08 17:30N 28°03' W 015°07'2 4.4
2017-Nov-08 17:00N 28°02' W 015°09'2 4.6
2017-Nov-08 16:30N 28°01' W 015°12'2 4.6
2017-Nov-08 16:00N 28°01' W 015°14'2 4.5
2017-Nov-08 15:30N 28°00' W 015°16'2 4.4
2017-Nov-08 15:00N 27°59' W 015°19'2 4.3
2017-Nov-08 14:30N 27°59' W 015°21'1 0.1
2017-Nov-08 02:39N 27°59' W 015°23'0 0.2
2017-Nov-08 02:30N 27°59' W 015°23'1 2.1
2017-Nov-08 02:00N 27°59' W 015°22'4 8.9
2017-Nov-08 01:30N 28°02' W 015°18'4 8.9
2017-Nov-08 01:00N 28°05' W 015°14'5 9.0
2017-Nov-08 00:30N 28°08' W 015°11'5 9.1
2017-Nov-08 00:00N 28°12' W 015°07'5 9.1
2017-Nov-07 23:30N 28°15' W 015°04'5 9.1
2017-Nov-07 23:01N 28°18' W 015°00'5 9.3
2017-Nov-07 22:30N 28°22' W 014°56'5 9.5
2017-Nov-07 22:01N 28°25' W 014°53'5 9.6
2017-Nov-07 21:30N 28°28' W 014°49'5 9.5
2017-Nov-07 21:01N 28°32' W 014°45'5 9.7
2017-Nov-07 20:30N 28°35' W 014°41'  
Track history (hours):
 
Tides and Currents Weather Stations Pressure Air Temp Water Temp Dewpoint Dewpoint Depression Visibility Wind Speed Wind Dir Waves Ship Positions

Maddy

Last reported at 2017-Nov-17 19:35 UTC. Time now 2017-Nov-21 01:06 UTC.
Position N 28°18' W 016°03'.

Length 75 m; draft 5 m.

Type: Ship. MMSI: 255802440.

Date/timePositionNaut miles runAvg speedWind from/ knotsBaromVisibWave heightAir tempDewpointWater temp
2017-Nov-17 19:35N 28°18' W 016°03'110.4
2017-Nov-17 19:30N 28°19' W 016°02'510.5
2017-Nov-17 19:00N 28°23' W 015°58'510.7
2017-Nov-17 18:30N 28°27' W 015°54'510.5
2017-Nov-17 18:00N 28°31' W 015°51'510.6
2017-Nov-17 17:31N 28°35' W 015°47'5 9.8
2017-Nov-17 17:00N 28°37' W 015°42'510.1
2017-Nov-17 16:31N 28°38' W 015°36'510.1
2017-Nov-17 16:01N 28°39' W 015°30'510.0
2017-Nov-17 15:31N 28°39' W 015°25'510.0
2017-Nov-17 15:00N 28°40' W 015°19'510.2
2017-Nov-17 14:31N 28°41' W 015°13'510.2
2017-Nov-17 14:01N 28°42' W 015°08'510.4
2017-Nov-17 13:30N 28°42' W 015°02'610.5
2017-Nov-17 12:55N 28°43' W 014°55'1610.4
2017-Nov-17 11:26N 28°45' W 014°37'510.5
2017-Nov-17 10:59N 28°44' W 014°32'510.3
2017-Nov-17 10:30N 28°45' W 014°26'610.3
2017-Nov-17 09:54N 28°46' W 014°19'610.1
2017-Nov-17 09:18N 28°47' W 014°13'1110.1
2017-Nov-17 08:12N 28°48' W 013°60'28 2.3
2017-Nov-16 20:00N 28°58' W 013°31'0 0.0
2017-Nov-16 13:09N 28°58' W 013°31'0 0.0
2017-Nov-16 11:50N 28°58' W 013°31'0 0.6
2017-Nov-16 11:28N 28°58' W 013°31'3 6.0
2017-Nov-16 11:00N 28°56' W 013°28'4 7.0
2017-Nov-16 10:28N 28°54' W 013°24'3 5.4
2017-Nov-16 09:59N 28°53' W 013°22'5 7.2
2017-Nov-16 09:20N 28°55' W 013°27'2 4.8
2017-Nov-16 08:59N 28°56' W 013°28'4 5.4
2017-Nov-16 08:19N 28°58' W 013°32'0 0.0
2017-Nov-16 01:02N 28°58' W 013°32'0 0.0
2017-Nov-16 00:44N 28°58' W 013°32'0 0.0
2017-Nov-16 00:27N 28°58' W 013°32'0 0.0
2017-Nov-15 23:57N 28°58' W 013°32'0 0.0
2017-Nov-15 23:00N 28°58' W 013°32'0 0.0
2017-Nov-15 21:39N 28°58' W 013°32'0 0.0
2017-Nov-15 21:21N 28°58' W 013°32'0 0.0
2017-Nov-15 20:41N 28°58' W 013°32'0 0.0
2017-Nov-15 20:17N 28°58' W 013°32'0 0.2
2017-Nov-15 18:04N 28°58' W 013°32'1 4.3
2017-Nov-15 17:45N 28°57' W 013°30'0 1.0
2017-Nov-15 17:22N 28°57' W 013°30'0 0.2
2017-Nov-15 16:38N 28°57' W 013°30'1 1.6
2017-Nov-15 16:18N 28°57' W 013°31'1 1.5
2017-Nov-15 15:50N 28°57' W 013°31'0 1.2
2017-Nov-15 15:27N 28°56' W 013°32'2 3.7
2017-Nov-15 14:57N 28°55' W 013°33'4 8.1
2017-Nov-15 14:27N 28°52' W 013°36'4 9.0
2017-Nov-15 14:00N 28°48' W 013°38'5 9.2
2017-Nov-15 13:30N 28°44' W 013°40'36 1.3
2017-Nov-14 10:19N 28°11' W 013°56'3 9.2
2017-Nov-14 09:59N 28°10' W 013°59'5 9.8
2017-Nov-14 09:31N 28°08' W 014°04'5 9.8
2017-Nov-14 08:58N 28°05' W 014°09'5 9.8
2017-Nov-14 08:29N 28°03' W 014°14'5 9.5
2017-Nov-14 07:56N 28°00' W 014°19'8 9.7
2017-Nov-14 07:06N 28°01' W 014°28'1 9.1
2017-Nov-14 06:58N 28°01' W 014°29'5 8.3
2017-Nov-14 06:21N 28°01' W 014°35'3 8.5
2017-Nov-14 06:00N 28°02' W 014°38'4 8.7
2017-Nov-14 05:30N 28°02' W 014°43'4 8.5
2017-Nov-14 05:00N 28°02' W 014°48'4 8.3
2017-Nov-14 04:30N 28°02' W 014°53'4 8.3
2017-Nov-14 04:00N 28°03' W 014°58'4 8.4
2017-Nov-14 03:30N 28°03' W 015°02'4 8.2
2017-Nov-14 03:00N 28°03' W 015°07'4 8.1
2017-Nov-14 02:30N 28°02' W 015°11'4 8.3
2017-Nov-14 02:00N 28°00' W 015°16'4 8.6
2017-Nov-14 01:31N 27°59' W 015°20'84 2.5
2017-Nov-12 15:14N 28°29' W 013°51'2 7.9
2017-Nov-12 14:59N 28°28' W 013°50'4 8.8
2017-Nov-12 14:29N 28°23' W 013°49'4 9.3
2017-Nov-12 14:00N 28°19' W 013°51'6 9.1
2017-Nov-12 13:20N 28°14' W 013°54'5 9.5
2017-Nov-12 12:47N 28°10' W 013°58'3 9.4
2017-Nov-12 12:30N 28°09' W 014°01'5 9.7
2017-Nov-12 11:59N 28°07' W 014°06'710.1
2017-Nov-12 11:19N 28°04' W 014°13'310.2
2017-Nov-12 11:00N 28°02' W 014°16'5 9.8
2017-Nov-12 10:30N 28°01' W 014°21'5 9.6
2017-Nov-12 10:00N 28°01' W 014°27'5 9.5
2017-Nov-12 09:31N 28°01' W 014°32'5 9.2
2017-Nov-12 09:01N 28°02' W 014°37'4 8.8
2017-Nov-12 08:30N 28°02' W 014°42'5 9.0
2017-Nov-12 08:00N 28°03' W 014°47'4 9.0
2017-Nov-12 07:30N 28°03' W 014°52'4 8.8
2017-Nov-12 07:00N 28°03' W 014°57'5 9.0
2017-Nov-12 06:30N 28°04' W 015°02'4 8.9
2017-Nov-12 06:00N 28°03' W 015°07'4 8.8
2017-Nov-12 05:30N 28°01' W 015°12'4 8.6
2017-Nov-12 05:00N 27°60' W 015°17'5 9.0
2017-Nov-12 04:30N 27°59' W 015°21'1 0.2
2017-Nov-11 23:08N 27°59' W 015°23'0 0.0
2017-Nov-11 22:56N 27°59' W 015°23'1 1.8
2017-Nov-11 22:31N 27°58' W 015°22'0 0.8
2017-Nov-11 22:01N 27°58' W 015°22'0 0.1
2017-Nov-11 21:31N 27°58' W 015°22'0 0.7
2017-Nov-11 21:01N 27°58' W 015°22'0 0.8
2017-Nov-11 20:30N 27°59' W 015°22'1 1.2
2017-Nov-11 20:01N 27°59' W 015°21'5 9.9
2017-Nov-11 19:31N 28°03' W 015°17'5 9.8
2017-Nov-11 19:01N 28°06' W 015°14'5 9.8
2017-Nov-11 18:31N 28°10' W 015°10'510.0
2017-Nov-11 18:01N 28°14' W 015°06'5 9.9
2017-Nov-11 17:30N 28°17' W 015°02'510.0
2017-Nov-11 17:00N 28°21' W 014°58'5 9.9
2017-Nov-11 16:30N 28°24' W 014°53'5 9.7
2017-Nov-11 16:00N 28°26' W 014°48'5 9.8
2017-Nov-11 15:30N 28°28' W 014°43'5 9.9
2017-Nov-11 15:00N 28°30' W 014°38'5 9.7
2017-Nov-11 14:30N 28°32' W 014°34'5 9.7
2017-Nov-11 14:00N 28°35' W 014°29'5 9.7
2017-Nov-11 13:30N 28°37' W 014°24'5 9.6
2017-Nov-11 12:59N 28°40' W 014°19'5 9.7
2017-Nov-11 12:30N 28°42' W 014°14'5 9.7
2017-Nov-11 12:00N 28°44' W 014°09'5 9.8
2017-Nov-11 11:31N 28°45' W 014°04'510.1
2017-Nov-11 11:00N 28°47' W 013°58'510.3
2017-Nov-11 10:30N 28°48' W 013°53'610.4
2017-Nov-11 09:57N 28°49' W 013°46'4 9.8
2017-Nov-11 09:29N 28°51' W 013°41'510.1
2017-Nov-11 09:00N 28°54' W 013°37'6 1.3
2017-Nov-11 04:26N 28°58' W 013°32'0 0.0
2017-Nov-11 03:59N 28°58' W 013°32'0 0.2
2017-Nov-11 03:29N 28°58' W 013°32'1 2.5
2017-Nov-11 03:00N 28°57' W 013°31'1 1.6
2017-Nov-11 02:30N 28°57' W 013°30'1 2.4
2017-Nov-11 01:54N 28°56' W 013°29'0 0.9
2017-Nov-11 01:30N 28°57' W 013°29'0 0.6
2017-Nov-11 00:59N 28°57' W 013°29'1 1.6
2017-Nov-11 00:28N 28°56' W 013°30'1 1.6
2017-Nov-10 23:59N 28°56' W 013°31'1 1.6
2017-Nov-10 23:09N 28°55' W 013°32'0 1.6
2017-Nov-10 23:01N 28°55' W 013°32'1 1.6
2017-Nov-10 22:31N 28°55' W 013°33'1 1.5
2017-Nov-10 22:00N 28°54' W 013°34'1 1.4
2017-Nov-10 21:30N 28°53' W 013°34'1 1.2
2017-Nov-10 21:01N 28°53' W 013°35'1 1.7
2017-Nov-10 20:30N 28°52' W 013°35'1 1.5
2017-Nov-10 20:00N 28°52' W 013°35'1 1.5
2017-Nov-10 19:29N 28°51' W 013°36'1 1.4
2017-Nov-10 19:00N 28°50' W 013°36'1 1.5
2017-Nov-10 18:30N 28°50' W 013°37'1 1.2
2017-Nov-10 18:00N 28°49' W 013°37'1 1.4
2017-Nov-10 17:30N 28°49' W 013°37'1 1.1
2017-Nov-10 17:00N 28°48' W 013°38'0 0.6
2017-Nov-10 16:30N 28°48' W 013°38'1 2.4
2017-Nov-10 16:00N 28°47' W 013°38'2 3.6
2017-Nov-10 15:30N 28°45' W 013°39'2 3.8
2017-Nov-10 15:00N 28°44' W 013°40'2 4.1
2017-Nov-10 14:30N 28°42' W 013°41'2 3.9
2017-Nov-10 14:00N 28°40' W 013°43'2 4.0
2017-Nov-10 13:30N 28°38' W 013°44'3 3.9
2017-Nov-10 12:44N 28°36' W 013°45'1 4.1
2017-Nov-10 12:31N 28°35' W 013°46'3 3.9
2017-Nov-10 11:50N 28°33' W 013°47'1 3.8
2017-Nov-10 11:28N 28°31' W 013°48'1 0.1
2017-Nov-09 19:58N 28°30' W 013°48'1 0.7
2017-Nov-09 18:41N 28°31' W 013°47'0 1.2
2017-Nov-09 18:19N 28°30' W 013°47'3 0.7
2017-Nov-09 14:08N 28°29' W 013°44'0 1.8
2017-Nov-09 13:52N 28°28' W 013°45'1 1.6
2017-Nov-09 13:14N 28°27' W 013°45'0 1.5
2017-Nov-09 13:00N 28°27' W 013°45'2 1.3
2017-Nov-09 11:48N 28°25' W 013°46'1 1.0
2017-Nov-09 11:08N 28°25' W 013°47'1 1.2
2017-Nov-09 10:00N 28°24' W 013°48'1 1.2
2017-Nov-09 09:30N 28°24' W 013°48'4 2.5
2017-Nov-09 08:03N 28°20' W 013°50'0 3.6
2017-Nov-09 07:58N 28°20' W 013°50'2 3.6
2017-Nov-09 07:28N 28°18' W 013°51'2 3.7
2017-Nov-09 06:49N 28°16' W 013°52'1 4.0
2017-Nov-09 06:30N 28°15' W 013°52'2 4.1
2017-Nov-09 06:00N 28°13' W 013°53'5 4.2
2017-Nov-09 04:56N 28°10' W 013°57'2 4.7
2017-Nov-09 04:30N 28°09' W 013°59'3 5.3
2017-Nov-09 04:00N 28°08' W 014°01'3 5.5
2017-Nov-09 03:28N 28°06' W 014°04'3 5.4
2017-Nov-09 03:00N 28°04' W 014°06'5 5.6
2017-Nov-09 02:02N 28°01' W 014°11'0 6.0
2017-Nov-09 02:00N 28°01' W 014°12'11 5.2
2017-Nov-08 23:55N 27°60' W 014°24'3 5.3
2017-Nov-08 23:25N 28°01' W 014°27'2 5.0
2017-Nov-08 23:00N 28°01' W 014°29'3 5.3
2017-Nov-08 22:31N 28°01' W 014°32'3 6.4
2017-Nov-08 22:00N 28°01' W 014°35'3 6.4
2017-Nov-08 21:30N 28°02' W 014°39'3 6.5
2017-Nov-08 21:01N 28°02' W 014°43'3 6.5
2017-Nov-08 20:31N 28°03' W 014°46'3 6.8
2017-Nov-08 20:01N 28°03' W 014°50'3 6.6
2017-Nov-08 19:30N 28°03' W 014°54'3 6.4
2017-Nov-08 19:00N 28°03' W 014°57'3 6.3
2017-Nov-08 18:30N 28°04' W 015°01'3 6.0
2017-Nov-08 18:00N 28°03' W 015°04'2 4.4
2017-Nov-08 17:30N 28°03' W 015°07'2 4.4
2017-Nov-08 17:00N 28°02' W 015°09'2 4.6
2017-Nov-08 16:30N 28°01' W 015°12'2 4.6
2017-Nov-08 16:00N 28°01' W 015°14'2 4.5
2017-Nov-08 15:30N 28°00' W 015°16'2 4.4
2017-Nov-08 15:00N 27°59' W 015°19'2 4.3
2017-Nov-08 14:30N 27°59' W 015°21'1 0.1
2017-Nov-08 02:39N 27°59' W 015°23'0 0.2
2017-Nov-08 02:30N 27°59' W 015°23'1 2.1
2017-Nov-08 02:00N 27°59' W 015°22'4 8.9
2017-Nov-08 01:30N 28°02' W 015°18'4 8.9
2017-Nov-08 01:00N 28°05' W 015°14'5 9.0
2017-Nov-08 00:30N 28°08' W 015°11'5 9.1
2017-Nov-08 00:00N 28°12' W 015°07'5 9.1
2017-Nov-07 23:30N 28°15' W 015°04'5 9.1
2017-Nov-07 23:01N 28°18' W 015°00'5 9.3
2017-Nov-07 22:30N 28°22' W 014°56'5 9.5
2017-Nov-07 22:01N 28°25' W 014°53'5 9.6
2017-Nov-07 21:30N 28°28' W 014°49'5 9.5
2017-Nov-07 21:01N 28°32' W 014°45'5 9.7
2017-Nov-07 20:30N 28°35' W 014°41'  

Dump ship's entire track history